EZS75XR EBBR-LSGG
Flight info
| Callsign | EZS75XR |
|---|---|
| Flight time | 1h 1m |
| Altitude | 31000 |
| Route | ROUSY DCT GTQ DCT POGOL DCT LASAT DCT MOROK Z24 AKITO |
| Aircraft | A20N/M-SDE2E3FGHIJ1RWXYZ/LB1 |
Departure
| Time | 2026-05-07 19:26 |
|---|---|
| Airport | Brussels Airport (EBBR) |
Arrival
| Time | 2026-05-07 20:27 |
|---|---|
| Airport | Geneva International Airport (LSGG) |
| Time | Latitude | Longitude | Altitude | Speed | Heading |
|---|---|---|---|---|---|
| 2026-05-07 18:58 | 50.90024 | 4.48590 | 148 ft | 0 kts | 156° |
| 2026-05-07 19:13 | 50.90038 | 4.48580 | 147 ft | 3 kts | 156° |
| 2026-05-07 19:14 | 50.90056 | 4.48567 | 147 ft | 3 kts | 156° |
| 2026-05-07 19:14 | 50.90073 | 4.48555 | 146 ft | 3 kts | 156° |
| 2026-05-07 19:14 | 50.90090 | 4.48541 | 145 ft | 3 kts | 116° |
| 2026-05-07 19:14 | 50.90092 | 4.48519 | 145 ft | 0 kts | 56° |
| 2026-05-07 19:19 | 50.90092 | 4.48520 | 145 ft | 1 kts | 56° |
| 2026-05-07 19:19 | 50.90104 | 4.48551 | 145 ft | 5 kts | 62° |
| 2026-05-07 19:20 | 50.90125 | 4.48621 | 145 ft | 9 kts | 65° |
| 2026-05-07 19:20 | 50.90154 | 4.48721 | 145 ft | 11 kts | 65° |
| 2026-05-07 19:20 | 50.90188 | 4.48839 | 145 ft | 12 kts | 65° |
| 2026-05-07 19:20 | 50.90223 | 4.48961 | 145 ft | 12 kts | 65° |
| 2026-05-07 19:21 | 50.90262 | 4.49094 | 144 ft | 14 kts | 65° |
| 2026-05-07 19:21 | 50.90307 | 4.49250 | 141 ft | 17 kts | 65° |
| 2026-05-07 19:21 | 50.90357 | 4.49423 | 139 ft | 17 kts | 65° |
| 2026-05-07 19:21 | 50.90401 | 4.49565 | 139 ft | 11 kts | 46° |
| 2026-05-07 19:22 | 50.90463 | 4.49597 | 139 ft | 9 kts | 14° |
| 2026-05-07 19:22 | 50.90524 | 4.49621 | 138 ft | 9 kts | 14° |
| 2026-05-07 19:22 | 50.90596 | 4.49651 | 136 ft | 12 kts | 14° |
| 2026-05-07 19:22 | 50.90680 | 4.49685 | 136 ft | 13 kts | 14° |
| 2026-05-07 19:23 | 50.90730 | 4.49705 | 136 ft | 5 kts | 14° |
| 2026-05-07 19:23 | 50.90766 | 4.49719 | 136 ft | 6 kts | 14° |
| 2026-05-07 19:23 | 50.90814 | 4.49738 | 134 ft | 9 kts | 14° |
| 2026-05-07 19:23 | 50.90886 | 4.49769 | 126 ft | 13 kts | 15° |
| 2026-05-07 19:24 | 50.90961 | 4.49835 | 126 ft | 12 kts | 39° |
| 2026-05-07 19:24 | 50.91032 | 4.49907 | 125 ft | 11 kts | 24° |
| 2026-05-07 19:24 | 50.91109 | 4.49952 | 124 ft | 11 kts | 4° |
| 2026-05-07 19:24 | 50.91132 | 4.49943 | 121 ft | 2 kts | 336° |
| 2026-05-07 19:25 | 50.91147 | 4.49910 | 127 ft | 3 kts | 277° |
| 2026-05-07 19:25 | 50.91142 | 4.49893 | 124 ft | 0 kts | 246° |
| 2026-05-07 19:25 | 50.91141 | 4.49887 | 124 ft | 6 kts | 246° |
| 2026-05-07 19:25 | 50.91037 | 4.49529 | 132 ft | 69 kts | 245° |
| 2026-05-07 19:26 | 50.90746 | 4.48521 | 137 ft | 131 kts | 245° |
| 2026-05-07 19:26 | 50.90308 | 4.46997 | 363 ft | 157 kts | 246° |
| 2026-05-07 19:26 | 50.89858 | 4.45440 | 978 ft | 157 kts | 245° |
| 2026-05-07 19:26 | 50.89384 | 4.43831 | 1528 ft | 164 kts | 245° |
| 2026-05-07 19:27 | 50.88851 | 4.42219 | 2194 ft | 167 kts | 230° |
| 2026-05-07 19:27 | 50.87844 | 4.41481 | 2922 ft | 164 kts | 174° |
| 2026-05-07 19:27 | 50.86846 | 4.42269 | 3546 ft | 170 kts | 135° |
| 2026-05-07 19:27 | 50.86017 | 4.43758 | 3878 ft | 194 kts | 128° |
| 2026-05-07 19:28 | 50.85128 | 4.45532 | 4178 ft | 220 kts | 128° |
| 2026-05-07 19:28 | 50.84086 | 4.47530 | 4520 ft | 247 kts | 129° |
| 2026-05-07 19:28 | 50.82942 | 4.49649 | 5265 ft | 257 kts | 130° |
| 2026-05-07 19:28 | 50.81764 | 4.51813 | 6132 ft | 263 kts | 131° |
| 2026-05-07 19:29 | 50.80553 | 4.54021 | 6984 ft | 268 kts | 131° |
| 2026-05-07 19:29 | 50.79246 | 4.56149 | 7838 ft | 273 kts | 139° |
| 2026-05-07 19:29 | 50.77806 | 4.58139 | 8732 ft | 277 kts | 140° |
| 2026-05-07 19:29 | 50.76312 | 4.60108 | 9651 ft | 282 kts | 141° |
| 2026-05-07 19:30 | 50.74771 | 4.62075 | 10417 ft | 291 kts | 142° |
| 2026-05-07 19:30 | 50.73127 | 4.64130 | 10809 ft | 313 kts | 142° |
| 2026-05-07 19:30 | 50.71374 | 4.66299 | 11408 ft | 326 kts | 143° |
| 2026-05-07 19:30 | 50.69571 | 4.68527 | 12207 ft | 332 kts | 143° |
| 2026-05-07 19:31 | 50.67741 | 4.70790 | 13090 ft | 337 kts | 143° |
| 2026-05-07 19:31 | 50.65909 | 4.73058 | 13958 ft | 341 kts | 143° |
| 2026-05-07 19:31 | 50.64028 | 4.75388 | 14726 ft | 346 kts | 143° |
| 2026-05-07 19:31 | 50.62123 | 4.77748 | 15487 ft | 351 kts | 143° |
| 2026-05-07 19:32 | 50.60190 | 4.80142 | 16243 ft | 356 kts | 143° |
| 2026-05-07 19:32 | 50.58229 | 4.82569 | 16997 ft | 361 kts | 143° |
| 2026-05-07 19:32 | 50.56243 | 4.85024 | 17737 ft | 365 kts | 143° |
| 2026-05-07 19:32 | 50.54913 | 4.86667 | 18228 ft | 368 kts | 143° |
| 2026-05-07 19:33 | 50.52886 | 4.89167 | 18866 ft | 373 kts | 143° |
| 2026-05-07 19:33 | 50.50836 | 4.91693 | 19508 ft | 377 kts | 143° |
| 2026-05-07 19:33 | 50.48767 | 4.94240 | 20164 ft | 380 kts | 144° |
| 2026-05-07 19:33 | 50.46672 | 4.96815 | 20821 ft | 384 kts | 144° |
| 2026-05-07 19:34 | 50.43874 | 5.00250 | 21667 ft | 388 kts | 144° |
| 2026-05-07 19:34 | 50.41734 | 5.02873 | 22289 ft | 392 kts | 144° |
| 2026-05-07 19:34 | 50.40279 | 5.04655 | 22700 ft | 394 kts | 144° |
| 2026-05-07 19:34 | 50.38105 | 5.07316 | 23292 ft | 398 kts | 144° |
| 2026-05-07 19:35 | 50.35945 | 5.09955 | 23833 ft | 401 kts | 144° |
| 2026-05-07 19:35 | 50.33734 | 5.12653 | 24310 ft | 405 kts | 144° |
| 2026-05-07 19:35 | 50.31502 | 5.15374 | 24780 ft | 408 kts | 144° |
| 2026-05-07 19:35 | 50.29257 | 5.18108 | 25235 ft | 411 kts | 144° |
| 2026-05-07 19:36 | 50.26991 | 5.20864 | 25677 ft | 414 kts | 144° |
| 2026-05-07 19:36 | 50.24711 | 5.23633 | 26112 ft | 417 kts | 144° |
| 2026-05-07 19:36 | 50.22410 | 5.26425 | 26552 ft | 420 kts | 144° |
| 2026-05-07 19:36 | 50.20097 | 5.29228 | 26991 ft | 422 kts | 144° |
| 2026-05-07 19:37 | 50.17769 | 5.32044 | 27415 ft | 425 kts | 144° |
| 2026-05-07 19:37 | 50.15454 | 5.34842 | 27817 ft | 428 kts | 144° |
| 2026-05-07 19:37 | 50.13094 | 5.37690 | 28221 ft | 431 kts | 144° |
| 2026-05-07 19:37 | 50.10719 | 5.40553 | 28614 ft | 433 kts | 144° |
| 2026-05-07 19:38 | 50.08327 | 5.43432 | 29007 ft | 436 kts | 144° |
| 2026-05-07 19:38 | 50.05919 | 5.46328 | 29374 ft | 439 kts | 144° |
| 2026-05-07 19:38 | 50.03496 | 5.49238 | 29751 ft | 441 kts | 144° |
| 2026-05-07 19:38 | 50.01060 | 5.52158 | 30034 ft | 445 kts | 144° |
| 2026-05-07 19:39 | 49.96151 | 5.58035 | 30066 ft | 445 kts | 144° |
| 2026-05-07 19:39 | 49.91246 | 5.63891 | 30068 ft | 445 kts | 144° |
| 2026-05-07 19:40 | 49.86373 | 5.69693 | 30064 ft | 445 kts | 144° |
| 2026-05-07 19:40 | 49.81453 | 5.75533 | 30238 ft | 447 kts | 144° |
| 2026-05-07 19:41 | 49.78987 | 5.78455 | 30578 ft | 448 kts | 144° |
| 2026-05-07 19:41 | 49.76503 | 5.81394 | 30899 ft | 450 kts | 144° |
| 2026-05-07 19:41 | 49.74009 | 5.84342 | 31045 ft | 452 kts | 144° |
| 2026-05-07 19:41 | 49.71506 | 5.87296 | 31053 ft | 452 kts | 144° |
| 2026-05-07 19:42 | 49.66513 | 5.93179 | 31051 ft | 452 kts | 144° |
| 2026-05-07 19:42 | 49.61544 | 5.99018 | 31049 ft | 452 kts | 144° |
| 2026-05-07 19:43 | 49.56541 | 6.04881 | 31048 ft | 452 kts | 144° |
| 2026-05-07 19:43 | 49.51544 | 6.10720 | 31049 ft | 452 kts | 144° |
| 2026-05-07 19:44 | 49.46534 | 6.16560 | 31049 ft | 452 kts | 145° |
| 2026-05-07 19:44 | 49.41523 | 6.22385 | 31050 ft | 452 kts | 145° |
| 2026-05-07 19:45 | 49.36507 | 6.28200 | 31052 ft | 452 kts | 145° |
| 2026-05-07 19:45 | 49.31489 | 6.34003 | 31055 ft | 452 kts | 145° |
| 2026-05-07 19:46 | 49.26468 | 6.39795 | 31055 ft | 452 kts | 145° |
| 2026-05-07 19:46 | 49.21477 | 6.45537 | 31062 ft | 452 kts | 145° |
| 2026-05-07 19:47 | 49.16448 | 6.51307 | 31064 ft | 452 kts | 145° |
| 2026-05-07 19:47 | 49.11422 | 6.57059 | 31042 ft | 452 kts | 145° |
| 2026-05-07 19:48 | 49.06391 | 6.62802 | 31055 ft | 452 kts | 145° |
| 2026-05-07 19:48 | 49.01200 | 6.68169 | 31056 ft | 450 kts | 155° |
| 2026-05-07 19:49 | 48.95364 | 6.71086 | 31057 ft | 443 kts | 174° |
| 2026-05-07 19:49 | 48.89231 | 6.71432 | 31057 ft | 441 kts | 183° |
| 2026-05-07 19:50 | 48.83101 | 6.71155 | 31056 ft | 440 kts | 185° |
| 2026-05-07 19:50 | 48.76981 | 6.70816 | 31057 ft | 440 kts | 184° |
| 2026-05-07 19:51 | 48.70862 | 6.70532 | 31056 ft | 440 kts | 184° |
| 2026-05-07 19:51 | 48.64741 | 6.70288 | 31056 ft | 440 kts | 184° |
| 2026-05-07 19:52 | 48.58618 | 6.70054 | 31056 ft | 440 kts | 184° |
| 2026-05-07 19:52 | 48.52539 | 6.69821 | 31059 ft | 440 kts | 184° |
| 2026-05-07 19:53 | 48.46415 | 6.69585 | 31058 ft | 440 kts | 184° |
| 2026-05-07 19:53 | 48.40295 | 6.69350 | 31058 ft | 439 kts | 184° |
| 2026-05-07 19:54 | 48.34183 | 6.69115 | 31064 ft | 439 kts | 184° |
| 2026-05-07 19:54 | 48.28075 | 6.68879 | 31064 ft | 439 kts | 184° |
| 2026-05-07 19:55 | 48.21970 | 6.68645 | 31065 ft | 439 kts | 184° |
| 2026-05-07 19:55 | 48.15913 | 6.68415 | 31069 ft | 438 kts | 184° |
| 2026-05-07 19:56 | 48.09825 | 6.68181 | 31065 ft | 438 kts | 184° |
| 2026-05-07 19:56 | 48.03741 | 6.67950 | 31065 ft | 437 kts | 184° |
| 2026-05-07 19:57 | 47.97655 | 6.67720 | 31069 ft | 437 kts | 185° |
| 2026-05-07 19:57 | 47.91582 | 6.67490 | 31062 ft | 437 kts | 185° |
| 2026-05-07 19:58 | 47.88558 | 6.67377 | 30932 ft | 430 kts | 185° |
| 2026-05-07 19:58 | 47.85617 | 6.67268 | 30695 ft | 429 kts | 185° |
| 2026-05-07 19:58 | 47.82618 | 6.67154 | 30462 ft | 433 kts | 185° |
| 2026-05-07 19:58 | 47.79603 | 6.67039 | 30194 ft | 434 kts | 185° |
| 2026-05-07 19:59 | 47.76575 | 6.66924 | 29909 ft | 435 kts | 185° |
| 2026-05-07 19:59 | 47.73548 | 6.66810 | 29619 ft | 436 kts | 185° |
| 2026-05-07 19:59 | 47.70514 | 6.66697 | 29331 ft | 436 kts | 185° |
| 2026-05-07 19:59 | 47.67477 | 6.66583 | 29038 ft | 437 kts | 185° |
| 2026-05-07 20:00 | 47.64435 | 6.66469 | 28783 ft | 438 kts | 185° |
| 2026-05-07 20:00 | 47.61386 | 6.66355 | 28511 ft | 438 kts | 185° |
| 2026-05-07 20:00 | 47.58374 | 6.66243 | 28220 ft | 439 kts | 185° |
| 2026-05-07 20:00 | 47.55320 | 6.66129 | 27951 ft | 440 kts | 185° |
| 2026-05-07 20:01 | 47.52261 | 6.66016 | 27682 ft | 440 kts | 185° |
| 2026-05-07 20:01 | 47.49195 | 6.65902 | 27419 ft | 441 kts | 185° |
| 2026-05-07 20:01 | 47.46121 | 6.65788 | 27157 ft | 442 kts | 184° |
| 2026-05-07 20:01 | 47.43047 | 6.65674 | 26898 ft | 443 kts | 184° |
| 2026-05-07 20:02 | 47.39963 | 6.65560 | 26636 ft | 443 kts | 184° |
| 2026-05-07 20:02 | 47.36875 | 6.65445 | 26376 ft | 444 kts | 184° |
| 2026-05-07 20:02 | 47.33782 | 6.65331 | 26124 ft | 445 kts | 184° |
| 2026-05-07 20:02 | 47.30684 | 6.65217 | 25873 ft | 446 kts | 184° |
| 2026-05-07 20:03 | 47.27585 | 6.65103 | 25634 ft | 446 kts | 184° |
| 2026-05-07 20:03 | 47.24520 | 6.64959 | 25384 ft | 446 kts | 187° |
| 2026-05-07 20:03 | 47.21507 | 6.64053 | 25142 ft | 441 kts | 203° |
| 2026-05-07 20:03 | 47.18841 | 6.61920 | 24884 ft | 436 kts | 219° |
| 2026-05-07 20:04 | 47.16545 | 6.59013 | 24650 ft | 436 kts | 224° |
| 2026-05-07 20:04 | 47.14329 | 6.55969 | 24417 ft | 437 kts | 225° |
| 2026-05-07 20:04 | 47.12099 | 6.52928 | 24179 ft | 438 kts | 224° |
| 2026-05-07 20:04 | 47.09848 | 6.49905 | 23929 ft | 439 kts | 224° |
| 2026-05-07 20:05 | 47.07585 | 6.46903 | 23458 ft | 439 kts | 224° |
| 2026-05-07 20:05 | 47.05305 | 6.43902 | 22849 ft | 441 kts | 224° |
| 2026-05-07 20:05 | 47.03043 | 6.40939 | 22302 ft | 443 kts | 223° |
| 2026-05-07 20:05 | 47.00738 | 6.37930 | 21729 ft | 444 kts | 223° |
| 2026-05-07 20:06 | 46.98457 | 6.34961 | 21351 ft | 432 kts | 223° |
| 2026-05-07 20:06 | 46.96249 | 6.32092 | 21074 ft | 417 kts | 223° |
| 2026-05-07 20:06 | 46.94110 | 6.29316 | 20814 ft | 404 kts | 223° |
| 2026-05-07 20:06 | 46.92040 | 6.26631 | 20488 ft | 393 kts | 223° |
| 2026-05-07 20:07 | 46.90013 | 6.23997 | 20003 ft | 387 kts | 223° |
| 2026-05-07 20:07 | 46.88014 | 6.21389 | 19456 ft | 384 kts | 223° |
| 2026-05-07 20:07 | 46.86032 | 6.18804 | 18911 ft | 380 kts | 223° |
| 2026-05-07 20:07 | 46.84064 | 6.16240 | 18362 ft | 378 kts | 223° |
| 2026-05-07 20:08 | 46.82147 | 6.13746 | 18005 ft | 369 kts | 223° |
| 2026-05-07 20:08 | 46.80260 | 6.11296 | 17759 ft | 357 kts | 223° |
| 2026-05-07 20:08 | 46.78436 | 6.08928 | 17542 ft | 345 kts | 223° |
| 2026-05-07 20:08 | 46.76653 | 6.06615 | 17083 ft | 342 kts | 223° |
| 2026-05-07 20:09 | 46.74879 | 6.04315 | 16536 ft | 341 kts | 223° |
| 2026-05-07 20:09 | 46.73113 | 6.02027 | 16037 ft | 339 kts | 223° |
| 2026-05-07 20:09 | 46.71355 | 5.99752 | 15545 ft | 337 kts | 223° |
| 2026-05-07 20:10 | 46.67868 | 5.95247 | 14610 ft | 333 kts | 222° |
| 2026-05-07 20:10 | 46.66137 | 5.93018 | 14140 ft | 331 kts | 222° |
| 2026-05-07 20:10 | 46.64412 | 5.90805 | 13613 ft | 331 kts | 222° |
| 2026-05-07 20:10 | 46.62694 | 5.88602 | 13228 ft | 325 kts | 222° |
| 2026-05-07 20:11 | 46.61051 | 5.86499 | 13046 ft | 313 kts | 222° |
| 2026-05-07 20:11 | 46.59375 | 5.84568 | 12859 ft | 303 kts | 212° |
| 2026-05-07 20:11 | 46.57447 | 5.83483 | 12584 ft | 297 kts | 190° |
| 2026-05-07 20:11 | 46.55391 | 5.83634 | 12183 ft | 299 kts | 165° |
| 2026-05-07 20:12 | 46.53524 | 5.84929 | 11804 ft | 299 kts | 150° |
| 2026-05-07 20:12 | 46.51803 | 5.86622 | 11396 ft | 298 kts | 147° |
| 2026-05-07 20:12 | 46.50124 | 5.88357 | 11100 ft | 293 kts | 147° |
| 2026-05-07 20:12 | 46.48472 | 5.90056 | 10925 ft | 290 kts | 148° |
| 2026-05-07 20:13 | 46.46825 | 5.91734 | 10759 ft | 289 kts | 148° |
| 2026-05-07 20:13 | 46.45197 | 5.93380 | 10604 ft | 289 kts | 148° |
| 2026-05-07 20:13 | 46.43551 | 5.95036 | 10427 ft | 288 kts | 148° |
| 2026-05-07 20:13 | 46.41909 | 5.96684 | 10268 ft | 287 kts | 148° |
| 2026-05-07 20:14 | 46.40272 | 5.98324 | 10100 ft | 285 kts | 149° |
| 2026-05-07 20:14 | 46.38645 | 5.99952 | 9944 ft | 284 kts | 149° |
| 2026-05-07 20:14 | 46.37016 | 6.01549 | 9761 ft | 281 kts | 152° |
| 2026-05-07 20:14 | 46.35239 | 6.02636 | 9601 ft | 275 kts | 171° |
| 2026-05-07 20:15 | 46.33353 | 6.02672 | 9447 ft | 271 kts | 193° |
| 2026-05-07 20:15 | 46.31637 | 6.01607 | 9291 ft | 270 kts | 216° |
| 2026-05-07 20:15 | 46.30217 | 5.99821 | 9143 ft | 271 kts | 224° |
| 2026-05-07 20:15 | 46.28900 | 5.97888 | 8973 ft | 269 kts | 225° |
| 2026-05-07 20:16 | 46.27600 | 5.95945 | 8828 ft | 269 kts | 225° |
| 2026-05-07 20:16 | 46.26314 | 5.94036 | 8674 ft | 269 kts | 225° |
| 2026-05-07 20:16 | 46.25006 | 5.92111 | 8521 ft | 269 kts | 225° |
| 2026-05-07 20:16 | 46.23694 | 5.90188 | 8363 ft | 269 kts | 224° |
| 2026-05-07 20:17 | 46.22380 | 5.88270 | 8202 ft | 268 kts | 224° |
| 2026-05-07 20:17 | 46.21067 | 5.86356 | 8029 ft | 268 kts | 224° |
| 2026-05-07 20:17 | 46.19751 | 5.84443 | 7876 ft | 269 kts | 224° |
| 2026-05-07 20:17 | 46.18436 | 5.82534 | 7720 ft | 268 kts | 224° |
| 2026-05-07 20:18 | 46.17120 | 5.80624 | 7559 ft | 268 kts | 224° |
| 2026-05-07 20:18 | 46.15804 | 5.78715 | 7414 ft | 269 kts | 224° |
| 2026-05-07 20:18 | 46.14504 | 5.76831 | 7249 ft | 268 kts | 224° |
| 2026-05-07 20:18 | 46.13197 | 5.74938 | 7111 ft | 261 kts | 224° |
| 2026-05-07 20:19 | 46.11945 | 5.73124 | 6999 ft | 249 kts | 224° |
| 2026-05-07 20:19 | 46.10759 | 5.71408 | 6974 ft | 237 kts | 224° |
| 2026-05-07 20:19 | 46.09448 | 5.70040 | 6985 ft | 233 kts | 199° |
| 2026-05-07 20:19 | 46.07853 | 5.69830 | 6980 ft | 234 kts | 168° |
| 2026-05-07 20:20 | 46.06398 | 5.70846 | 6987 ft | 237 kts | 145° |
| 2026-05-07 20:20 | 46.05090 | 5.72313 | 6984 ft | 239 kts | 143° |
| 2026-05-07 20:20 | 46.03794 | 5.73822 | 6980 ft | 240 kts | 143° |
| 2026-05-07 20:20 | 46.02625 | 5.75487 | 6738 ft | 242 kts | 120° |
| 2026-05-07 20:21 | 46.02299 | 5.77813 | 6491 ft | 242 kts | 81° |
| 2026-05-07 20:21 | 46.02886 | 5.80054 | 6253 ft | 240 kts | 59° |
| 2026-05-07 20:21 | 46.03912 | 5.81886 | 6053 ft | 231 kts | 47° |
| 2026-05-07 20:21 | 46.05013 | 5.83453 | 5975 ft | 213 kts | 46° |
| 2026-05-07 20:22 | 46.06032 | 5.84910 | 5973 ft | 203 kts | 46° |
| 2026-05-07 20:22 | 46.07032 | 5.86335 | 5871 ft | 202 kts | 46° |
| 2026-05-07 20:22 | 46.08021 | 5.87770 | 5635 ft | 201 kts | 47° |
| 2026-05-07 20:22 | 46.08995 | 5.89202 | 5338 ft | 199 kts | 47° |
| 2026-05-07 20:23 | 46.09946 | 5.90594 | 5038 ft | 196 kts | 47° |
| 2026-05-07 20:23 | 46.10897 | 5.91983 | 4761 ft | 193 kts | 47° |
| 2026-05-07 20:23 | 46.11830 | 5.93346 | 4492 ft | 190 kts | 47° |
| 2026-05-07 20:23 | 46.12757 | 5.94702 | 4237 ft | 189 kts | 47° |
| 2026-05-07 20:24 | 46.13679 | 5.96051 | 3988 ft | 188 kts | 46° |
| 2026-05-07 20:24 | 46.14594 | 5.97390 | 3737 ft | 186 kts | 47° |
| 2026-05-07 20:24 | 46.15496 | 5.98711 | 3489 ft | 184 kts | 45° |
| 2026-05-07 20:24 | 46.16377 | 6.00000 | 3246 ft | 176 kts | 45° |
| 2026-05-07 20:25 | 46.17223 | 6.01238 | 3009 ft | 170 kts | 45° |
| 2026-05-07 20:25 | 46.18034 | 6.02427 | 2792 ft | 163 kts | 45° |
| 2026-05-07 20:25 | 46.18812 | 6.03567 | 2562 ft | 159 kts | 45° |
| 2026-05-07 20:25 | 46.19570 | 6.04677 | 2425 ft | 152 kts | 45° |
| 2026-05-07 20:26 | 46.20282 | 6.05730 | 2179 ft | 140 kts | 45° |
| 2026-05-07 20:26 | 46.20939 | 6.06697 | 1983 ft | 130 kts | 45° |
| 2026-05-07 20:26 | 46.21572 | 6.07632 | 1803 ft | 131 kts | 45° |
| 2026-05-07 20:26 | 46.22213 | 6.08569 | 1616 ft | 131 kts | 45° |
| 2026-05-07 20:27 | 46.22860 | 6.09508 | 1426 ft | 131 kts | 46° |
| 2026-05-07 20:27 | 46.23435 | 6.10353 | 1396 ft | 97 kts | 45° |
| 2026-05-07 20:27 | 46.23784 | 6.10863 | 1382 ft | 45 kts | 45° |
| 2026-05-07 20:27 | 46.23861 | 6.11036 | 1383 ft | 14 kts | 110° |
| 2026-05-07 20:28 | 46.23778 | 6.11084 | 1379 ft | 13 kts | 170° |
| 2026-05-07 20:28 | 46.23693 | 6.11063 | 1378 ft | 13 kts | 225° |
| 2026-05-07 20:28 | 46.23629 | 6.10968 | 1376 ft | 13 kts | 225° |
| 2026-05-07 20:28 | 46.23569 | 6.10905 | 1379 ft | 8 kts | 167° |
| 2026-05-07 20:29 | 46.23526 | 6.10958 | 1379 ft | 8 kts | 136° |
| 2026-05-07 20:29 | 46.23485 | 6.11013 | 1381 ft | 7 kts | 151° |
| 2026-05-07 20:29 | 46.23449 | 6.10981 | 1380 ft | 10 kts | 225° |
| 2026-05-07 20:29 | 46.23389 | 6.10893 | 1382 ft | 13 kts | 225° |
| 2026-05-07 20:30 | 46.23330 | 6.10809 | 1386 ft | 11 kts | 215° |
| 2026-05-07 20:30 | 46.23270 | 6.10781 | 1387 ft | 8 kts | 195° |
| 2026-05-07 20:30 | 46.23218 | 6.10734 | 1389 ft | 11 kts | 224° |
| 2026-05-07 20:30 | 46.23164 | 6.10656 | 1388 ft | 10 kts | 225° |
| 2026-05-07 20:31 | 46.23133 | 6.10606 | 1402 ft | 1 kts | 248° |
| 2026-05-07 20:31 | 46.23138 | 6.10587 | 1402 ft | 2 kts | 303° |
| 2026-05-07 20:31 | 46.23157 | 6.10577 | 1401 ft | 4 kts | 356° |
| 2026-05-07 20:31 | 46.23180 | 6.10578 | 1387 ft | 1 kts | 358° |
| 2026-05-07 20:32 | 46.23182 | 6.10578 | 1386 ft | 0 kts | 358° |